createdAt,value
2019-02-18T00:01:52.001Z,48.52
2019-02-18T00:06:55.861Z,48.64
2019-02-18T00:11:59.675Z,49.00
2019-02-18T00:17:03.556Z,49.22
2019-02-18T00:22:07.345Z,49.20
2019-02-18T00:27:11.205Z,49.46
2019-02-18T00:32:15.041Z,49.56
2019-02-18T00:37:24.462Z,49.68
2019-02-18T00:42:24.752Z,49.90
2019-02-18T00:47:28.581Z,50.16
2019-02-18T00:52:32.385Z,50.32
2019-02-18T00:57:36.249Z,50.72
2019-02-18T01:02:40.056Z,50.95
2019-02-18T01:07:43.857Z,51.07
2019-02-18T01:12:47.824Z,51.32
2019-02-18T01:17:51.925Z,51.60
2019-02-18T01:22:55.765Z,51.87
2019-02-18T01:27:59.955Z,52.08
2019-02-18T01:33:03.880Z,52.28
2019-02-18T01:38:07.749Z,52.44
2019-02-18T01:43:11.623Z,52.88
2019-02-18T01:48:15.515Z,53.10
2019-02-18T01:53:19.419Z,53.27
2019-02-18T01:58:23.552Z,53.59
2019-02-18T02:03:27.452Z,53.79
2019-02-18T02:08:31.259Z,53.98
2019-02-18T02:13:36.507Z,54.02
2019-02-18T02:18:40.471Z,54.19
2019-02-18T02:23:44.262Z,54.38
2019-02-18T02:28:48.214Z,54.36
2019-02-18T02:33:52.020Z,54.42
2019-02-18T02:38:55.825Z,54.41
2019-02-18T02:43:59.617Z,54.49
2019-02-18T02:49:03.406Z,54.82
2019-02-18T02:54:07.210Z,55.13
2019-02-18T02:59:11.032Z,55.79
2019-02-18T03:04:14.819Z,56.05
2019-02-18T03:09:18.621Z,56.34
2019-02-18T03:14:22.520Z,56.56
2019-02-18T03:19:26.331Z,56.55
2019-02-18T03:24:30.157Z,56.78
2019-02-18T03:30:15.118Z,56.74
2019-02-18T03:35:18.973Z,56.92
2019-02-18T03:40:22.863Z,56.89
2019-02-18T03:45:26.690Z,56.98
2019-02-18T03:50:30.567Z,57.09
2019-02-18T03:55:34.509Z,57.11
2019-02-18T04:00:38.389Z,57.12
2019-02-18T04:05:42.329Z,57.30
2019-02-18T04:10:46.312Z,57.43
2019-02-18T04:15:50.125Z,57.54
2019-02-18T04:20:53.935Z,57.68
2019-02-18T04:25:57.745Z,57.71
2019-02-18T04:31:01.602Z,57.76
2019-02-18T04:36:05.423Z,58.08
2019-02-18T04:41:09.331Z,58.19
2019-02-18T04:46:13.121Z,58.40
2019-02-18T04:51:16.943Z,58.56
2019-02-18T04:56:20.735Z,58.55
2019-02-18T05:01:24.695Z,58.70
2019-02-18T05:06:28.553Z,59.17
2019-02-18T05:11:32.413Z,59.55
2019-02-18T05:16:36.201Z,59.57
2019-02-18T05:21:40.091Z,59.37
2019-02-18T05:26:43.916Z,59.71
2019-02-18T05:31:47.783Z,59.71
2019-02-18T05:36:51.704Z,59.69
2019-02-18T05:41:55.596Z,59.67
2019-02-18T05:46:59.409Z,59.79
2019-02-18T05:52:03.311Z,59.79
2019-02-18T05:57:07.130Z,59.86
2019-02-18T06:02:10.919Z,59.94
2019-02-18T06:07:14.730Z,60.07
2019-02-18T06:12:18.789Z,60.03
2019-02-18T06:17:22.687Z,60.01
2019-02-18T06:22:26.533Z,60.01
2019-02-18T06:27:30.507Z,59.98
2019-02-18T06:32:34.331Z,59.94
2019-02-18T06:37:38.265Z,59.99
2019-02-18T06:42:42.059Z,59.96
2019-02-18T06:47:45.923Z,60.11
2019-02-18T06:52:49.711Z,60.58
2019-02-18T06:58:04.060Z,60.91
2019-02-18T07:03:28.011Z,61.06
2019-02-18T07:08:51.655Z,61.19
2019-02-18T07:13:58.453Z,61.49
2019-02-18T07:19:02.287Z,61.69
2019-02-18T07:24:06.139Z,61.90
2019-02-18T07:29:09.985Z,62.04
2019-02-18T07:34:14.043Z,62.24
2019-02-18T07:39:17.859Z,62.45
2019-02-18T07:44:21.725Z,62.94
2019-02-18T07:49:25.706Z,64.18
2019-02-18T07:54:29.589Z,64.23
2019-02-18T07:59:33.381Z,63.86
2019-02-18T08:04:37.187Z,63.31
2019-02-18T08:09:41.175Z,62.33
2019-02-18T08:14:45.055Z,61.58
2019-02-18T08:19:48.954Z,61.13
2019-02-18T08:24:52.863Z,60.68
2019-02-18T08:29:56.681Z,60.65
2019-02-18T08:35:00.839Z,59.76
2019-02-18T08:40:04.873Z,59.28
2019-02-18T08:45:10.397Z,58.15
2019-02-18T08:50:14.175Z,56.86
2019-02-18T08:55:18.330Z,55.73
2019-02-18T09:00:22.357Z,55.67
2019-02-18T09:05:26.209Z,54.76
2019-02-18T09:10:33.701Z,53.39
2019-02-18T09:15:35.630Z,52.59
2019-02-18T09:20:39.532Z,52.66
2019-02-18T09:25:48.559Z,52.00
2019-02-18T09:30:54.613Z,50.78
2019-02-18T09:35:58.568Z,50.44
2019-02-18T09:41:02.367Z,49.41
2019-02-18T09:46:06.187Z,48.53
2019-02-18T09:51:10.405Z,46.80
2019-02-18T09:56:14.227Z,47.89
2019-02-18T10:01:18.026Z,46.98
2019-02-18T10:06:22.391Z,46.80
2019-02-18T10:11:28.389Z,45.83
2019-02-18T10:16:32.857Z,45.06
2019-02-18T10:21:36.732Z,44.96
2019-02-18T10:26:40.780Z,44.40
2019-02-18T10:31:44.787Z,43.54
2019-02-18T10:36:48.671Z,43.22
2019-02-18T10:41:52.632Z,42.49
2019-02-18T10:46:56.511Z,42.14
2019-02-18T10:52:00.379Z,42.97
2019-02-18T10:57:04.263Z,43.63
2019-02-18T11:02:08.582Z,42.75
2019-02-18T11:07:12.601Z,43.00
2019-02-18T11:12:16.655Z,42.87
2019-02-18T11:17:20.645Z,42.37
2019-02-18T11:22:24.817Z,43.19
2019-02-18T11:27:28.623Z,43.05
2019-02-18T11:32:32.624Z,41.95
2019-02-18T11:37:36.449Z,41.24
2019-02-18T11:42:40.378Z,40.80
2019-02-18T11:47:44.659Z,40.85
2019-02-18T11:52:48.465Z,40.48
2019-02-18T11:57:52.405Z,39.64
2019-02-18T12:03:03.672Z,39.52
2019-02-18T12:08:02.105Z,39.71
2019-02-18T12:13:05.975Z,40.68
2019-02-18T12:18:09.823Z,40.13
2019-02-18T12:23:13.736Z,39.19
2019-02-18T12:28:17.644Z,38.38
2019-02-18T12:33:21.562Z,38.10
2019-02-18T12:38:25.455Z,38.10
2019-02-18T12:43:29.504Z,38.23
2019-02-18T12:48:35.289Z,37.58
2019-02-18T12:53:39.125Z,36.93
2019-02-18T12:58:43.029Z,36.91
2019-02-18T13:03:46.880Z,36.55
2019-02-18T13:08:50.752Z,36.25
2019-02-18T13:13:54.673Z,35.68
2019-02-18T13:18:58.539Z,35.38
2019-02-18T13:24:02.571Z,35.13
2019-02-18T13:29:06.539Z,35.03
2019-02-18T13:34:10.403Z,34.59
2019-02-18T13:39:14.283Z,34.59
2019-02-18T13:44:18.245Z,34.41
2019-02-18T13:49:22.036Z,33.95
2019-02-18T13:54:26.009Z,33.82
2019-02-18T13:59:29.883Z,33.76
2019-02-18T14:04:33.695Z,33.41
2019-02-18T14:09:37.503Z,33.21
2019-02-18T14:14:41.467Z,32.67
2019-02-18T14:19:45.725Z,32.57
2019-02-18T14:24:49.543Z,33.60
2019-02-18T14:29:53.663Z,33.04
2019-02-18T14:34:57.482Z,33.29
2019-02-18T14:40:01.379Z,33.06
2019-02-18T14:45:08.767Z,32.85
2019-02-18T14:50:14.031Z,32.49
2019-02-18T14:55:17.928Z,32.31
2019-02-18T15:00:25.661Z,31.90
2019-02-18T15:05:29.559Z,31.97
2019-02-18T15:10:36.791Z,32.29
2019-02-18T15:15:40.644Z,31.91
2019-02-18T15:20:44.543Z,31.89
2019-02-18T15:25:48.423Z,31.71
2019-02-18T15:30:54.135Z,31.88
2019-02-18T15:35:58.932Z,31.80
2019-02-18T15:41:03.083Z,31.84
2019-02-18T15:46:07.050Z,31.76
2019-02-18T15:51:12.198Z,32.11
2019-02-18T15:56:16.435Z,32.57
2019-02-18T16:01:20.346Z,32.86
2019-02-18T16:06:24.545Z,33.04
2019-02-18T16:11:28.415Z,33.17
2019-02-18T16:16:32.272Z,33.38
2019-02-18T16:21:36.243Z,33.66
2019-02-18T16:26:40.242Z,33.66
2019-02-18T16:31:44.269Z,33.72
2019-02-18T16:36:48.259Z,34.44
2019-02-18T16:41:52.247Z,34.44
2019-02-18T16:46:56.283Z,35.18
2019-02-18T16:52:00.120Z,35.18
2019-02-18T16:57:04.236Z,34.98
2019-02-18T17:02:09.713Z,35.20
2019-02-18T17:07:13.841Z,35.55
2019-02-18T17:12:17.833Z,35.81
2019-02-18T17:17:21.696Z,35.99
2019-02-18T17:22:25.606Z,36.00
2019-02-18T17:27:29.555Z,36.27
2019-02-18T17:32:34.593Z,36.54
2019-02-18T17:37:38.623Z,36.89
2019-02-18T17:42:42.521Z,37.16
2019-02-18T17:47:46.740Z,37.31
2019-02-18T17:52:50.664Z,37.57
2019-02-18T17:57:54.983Z,37.38
2019-02-18T18:02:58.881Z,37.52
2019-02-18T18:08:02.879Z,38.15
2019-02-18T18:13:06.785Z,38.61
2019-02-18T18:18:10.641Z,39.28
2019-02-18T18:23:14.753Z,39.61
2019-02-18T18:28:18.843Z,39.83
2019-02-18T18:33:23.504Z,40.04
2019-02-18T18:38:29.029Z,39.85
2019-02-18T18:43:34.066Z,40.02
2019-02-18T18:48:38.225Z,40.12
2019-02-18T18:53:42.137Z,40.17
2019-02-18T18:58:46.367Z,40.48
2019-02-18T19:03:50.527Z,40.92
2019-02-18T19:08:54.525Z,41.30
2019-02-18T19:13:58.528Z,41.86
2019-02-18T19:19:02.969Z,41.91
2019-02-18T19:24:06.951Z,42.29
2019-02-18T19:29:10.943Z,42.29
2019-02-18T19:34:15.257Z,43.00
2019-02-18T19:39:19.313Z,43.03
2019-02-18T19:44:24.513Z,43.38
2019-02-18T19:49:28.535Z,43.38
2019-02-18T19:54:32.582Z,43.64
2019-02-18T19:59:36.641Z,43.92
2019-02-18T20:04:40.535Z,44.23
2019-02-18T20:09:44.813Z,44.61
2019-02-18T20:14:48.840Z,45.10
2019-02-18T20:19:52.835Z,45.32
2019-02-18T20:24:56.891Z,45.45
2019-02-18T20:30:00.735Z,45.51
2019-02-18T20:35:05.248Z,45.66
2019-02-18T20:40:10.988Z,45.92
2019-02-18T20:45:17.015Z,46.12
2019-02-18T20:50:21.007Z,46.42
2019-02-18T20:55:25.087Z,46.81
2019-02-18T21:00:28.983Z,46.67
2019-02-18T21:05:33.040Z,46.72
2019-02-18T21:10:37.030Z,46.97
2019-02-18T21:15:40.973Z,47.16
2019-02-18T21:20:44.801Z,47.29
2019-02-18T21:25:48.787Z,47.35
2019-02-18T21:30:52.907Z,47.34
2019-02-18T21:35:56.858Z,47.47
2019-02-18T21:41:00.857Z,47.58
2019-02-18T21:46:05.101Z,47.59
2019-02-18T21:51:09.087Z,47.85
2019-02-18T21:56:13.150Z,47.88
2019-02-18T22:01:17.168Z,48.08
2019-02-18T22:06:21.209Z,48.43
2019-02-18T22:11:25.227Z,48.71
2019-02-18T22:16:29.327Z,48.98
2019-02-18T22:21:33.349Z,49.21
2019-02-18T22:26:37.331Z,49.26
2019-02-18T22:31:41.233Z,49.32
2019-02-18T22:36:47.044Z,49.36
2019-02-18T22:41:51.007Z,49.58
2019-02-18T22:46:54.876Z,49.68
2019-02-18T22:51:58.748Z,49.93
2019-02-18T22:57:02.583Z,50.05
2019-02-18T23:02:06.768Z,50.11
2019-02-18T23:07:10.621Z,50.39
2019-02-18T23:12:14.519Z,50.59
2019-02-18T23:17:18.467Z,50.88
2019-02-18T23:22:24.063Z,51.17
2019-02-18T23:27:29.092Z,51.42
2019-02-18T23:32:33.459Z,51.79
2019-02-18T23:37:37.983Z,52.25
2019-02-18T23:42:42.819Z,52.61
2019-02-18T23:47:46.688Z,52.89
2019-02-18T23:52:50.678Z,54.29
2019-02-18T23:57:54.584Z,56.27
